Clinton, IA

10:49 AM CST on November 21, 2014 (GMT -0600)
MesoWest US-30 @ Clinton/Mississippi Rive IL US ILDOT | Change Station
CLOSE
Current Station
Personal Weather Station
Location: Clinton, IA
Elevation: 577 ft
Nearby Weather Stations
Active Advisory: Freezing Rain Advisory Active Notice: Record Report

Elev 577 ft 41.84 °N, 90.18 °W | Updated 53 minutes ago

Clear
Clear
24 °F
Feels Like 19 °F
N
4
Wind Variable Wind from North
Gusts 11.0 mph

Today
High -- | Low -- °F
--% Chance of Precip.
Yesterday
High -- | Low -- °F
Precip. -- in
6:57 AM 4:35 PM
Waning Crescent, 1% visible
Pressure 30.42 in
Visibility 10.0 miles
Clouds Clear
Windchill 19 °F
Dew Point 13 °F
Humidity 61%
Rainfall -999.00 in
Snow Depth Not available.
UV 2 out of 12
Pollen .10 out of 12
Air Quality Not available.
Flu Activity Not available.
METAR KCWI 211635Z AUTO 16011KT 10SM CLR M04/M13 A3042 RMK AO1

More Conditions Fewer Conditions

Pressure 30.42 in
Visibility 10.0 miles
Clouds Clear
Windchill 19 °F
Dew Point 13 °F
Humidity 61%
Rainfall -999.00 in
Snow Depth Not available.
UV 2 out of 12
Pollen .10 out of 12
Air Quality Not available.
Flu Activity Not available.
METAR KCWI 211635Z AUTO 16011KT 10SM CLR M04/M13 A3042 RMK AO1

More Conditions Fewer Conditions

10-Day Weather Forecast

Almanac

Astronomy

Nov. 21, 2014 Rise Set
Actual Time
Civil Twilight
Nautical Twilight
Astronomical Twilight
Moon
Length of Visible Light
Length of Day
Tomorrow will be .
, % of the Moon is Illuminated

Today's Extremes

State Highs State Lows

Community

WunderPhotos

Upload Photos

1,772,687 photos uploaded!

WunderBlogs® & News

Nearby

Air Quality

  Air Quality AQ Index Pollutant
Not available.

Snow Depth

Station Depth Elevation

Earthquake Activity

City Distance Mag. Time & Date
Minimum magnitude displayed is 2.5.

Coastal Water Temperatures

Place Temperature

Nearby Weather Stations